sensor_id;sensor_type;location;lat;lon;timestamp;P1;durP1;ratioP1;P2;durP2;ratioP2
18973;SDS011;9621;48.690;9.466;2022-08-30T00:00:31;10.15;;;8.45;;
18973;SDS011;9621;48.690;9.466;2022-08-30T00:03:17;13.27;;;8.20;;
18973;SDS011;9621;48.690;9.466;2022-08-30T00:05:45;10.50;;;8.18;;
18973;SDS011;9621;48.690;9.466;2022-08-30T00:08:13;9.68;;;7.78;;
18973;SDS011;9621;48.690;9.466;2022-08-30T00:10:41;10.98;;;7.75;;
18973;SDS011;9621;48.690;9.466;2022-08-30T00:13:08;8.98;;;7.95;;
18973;SDS011;9621;48.690;9.466;2022-08-30T00:15:37;11.95;;;8.05;;
18973;SDS011;9621;48.690;9.466;2022-08-30T00:18:04;13.98;;;8.15;;
18973;SDS011;9621;48.690;9.466;2022-08-30T00:20:31;12.15;;;8.27;;
18973;SDS011;9621;48.690;9.466;2022-08-30T00:23:01;13.20;;;7.85;;
18973;SDS011;9621;48.690;9.466;2022-08-30T00:25:29;9.35;;;8.23;;
18973;SDS011;9621;48.690;9.466;2022-08-30T00:27:56;12.18;;;8.77;;
18973;SDS011;9621;48.690;9.466;2022-08-30T00:30:23;10.90;;;8.10;;
18973;SDS011;9621;48.690;9.466;2022-08-30T00:32:50;9.48;;;7.55;;
18973;SDS011;9621;48.690;9.466;2022-08-30T00:35:18;13.13;;;8.73;;
18973;SDS011;9621;48.690;9.466;2022-08-30T00:37:46;9.98;;;8.25;;
18973;SDS011;9621;48.690;9.466;2022-08-30T00:40:16;11.05;;;8.32;;
18973;SDS011;9621;48.690;9.466;2022-08-30T00:42:44;12.38;;;8.52;;
18973;SDS011;9621;48.690;9.466;2022-08-30T00:45:14;10.70;;;8.63;;
18973;SDS011;9621;48.690;9.466;2022-08-30T00:47:44;10.52;;;8.18;;
18973;SDS011;9621;48.690;9.466;2022-08-30T00:50:13;13.38;;;8.43;;
18973;SDS011;9621;48.690;9.466;2022-08-30T00:52:42;10.35;;;7.65;;
18973;SDS011;9621;48.690;9.466;2022-08-30T00:55:13;14.25;;;8.80;;
18973;SDS011;9621;48.690;9.466;2022-08-30T00:57:44;11.27;;;8.68;;
18973;SDS011;9621;48.690;9.466;2022-08-30T01:00:13;12.18;;;8.50;;
18973;SDS011;9621;48.690;9.466;2022-08-30T01:02:41;11.05;;;8.57;;
18973;SDS011;9621;48.690;9.466;2022-08-30T01:05:09;10.50;;;8.40;;
18973;SDS011;9621;48.690;9.466;2022-08-30T01:07:38;11.07;;;8.70;;
18973;SDS011;9621;48.690;9.466;2022-08-30T01:10:07;9.85;;;8.07;;
18973;SDS011;9621;48.690;9.466;2022-08-30T01:12:38;11.13;;;8.02;;
18973;SDS011;9621;48.690;9.466;2022-08-30T01:15:07;9.90;;;8.45;;
18973;SDS011;9621;48.690;9.466;2022-08-30T01:17:35;10.48;;;8.60;;
18973;SDS011;9621;48.690;9.466;2022-08-30T01:20:06;11.07;;;9.23;;
18973;SDS011;9621;48.690;9.466;2022-08-30T01:22:37;13.77;;;8.90;;
18973;SDS011;9621;48.690;9.466;2022-08-30T01:25:10;14.20;;;8.95;;
18973;SDS011;9621;48.690;9.466;2022-08-30T01:27:40;11.18;;;8.68;;
18973;SDS011;9621;48.690;9.466;2022-08-30T01:30:11;11.88;;;8.80;;
18973;SDS011;9621;48.690;9.466;2022-08-30T01:32:39;11.77;;;9.20;;
18973;SDS011;9621;48.690;9.466;2022-08-30T01:35:09;11.68;;;8.60;;
18973;SDS011;9621;48.690;9.466;2022-08-30T01:37:37;14.57;;;8.73;;
18973;SDS011;9621;48.690;9.466;2022-08-30T01:40:05;10.57;;;8.98;;
18973;SDS011;9621;48.690;9.466;2022-08-30T01:42:34;11.80;;;9.00;;
18973;SDS011;9621;48.690;9.466;2022-08-30T01:45:03;10.73;;;8.68;;
18973;SDS011;9621;48.690;9.466;2022-08-30T01:47:30;12.32;;;8.93;;
18973;SDS011;9621;48.690;9.466;2022-08-30T01:49:57;13.40;;;8.98;;
18973;SDS011;9621;48.690;9.466;2022-08-30T01:52:24;10.45;;;8.55;;
18973;SDS011;9621;48.690;9.466;2022-08-30T01:54:51;12.35;;;9.40;;
18973;SDS011;9621;48.690;9.466;2022-08-30T01:57:19;13.30;;;9.23;;
18973;SDS011;9621;48.690;9.466;2022-08-30T01:59:52;13.73;;;9.75;;
18973;SDS011;9621;48.690;9.466;2022-08-30T02:02:20;15.23;;;8.90;;
18973;SDS011;9621;48.690;9.466;2022-08-30T02:04:50;11.52;;;8.52;;
18973;SDS011;9621;48.690;9.466;2022-08-30T02:07:17;13.13;;;9.63;;
18973;SDS011;9621;48.690;9.466;2022-08-30T02:09:45;11.43;;;8.40;;
18973;SDS011;9621;48.690;9.466;2022-08-30T02:12:11;10.45;;;9.00;;
18973;SDS011;9621;48.690;9.466;2022-08-30T02:14:39;15.20;;;8.57;;
18973;SDS011;9621;48.690;9.466;2022-08-30T02:17:09;10.30;;;8.95;;
18973;SDS011;9621;48.690;9.466;2022-08-30T02:19:36;13.70;;;9.27;;
18973;SDS011;9621;48.690;9.466;2022-08-30T02:22:04;10.50;;;8.43;;
18973;SDS011;9621;48.690;9.466;2022-08-30T02:24:32;11.23;;;7.70;;
18973;SDS011;9621;48.690;9.466;2022-08-30T02:26:59;10.15;;;8.15;;
18973;SDS011;9621;48.690;9.466;2022-08-30T02:29:27;12.68;;;8.82;;
18973;SDS011;9621;48.690;9.466;2022-08-30T02:31:54;13.88;;;9.10;;
18973;SDS011;9621;48.690;9.466;2022-08-30T02:34:22;14.20;;;8.95;;
18973;SDS011;9621;48.690;9.466;2022-08-30T02:36:49;15.98;;;8.73;;
18973;SDS011;9621;48.690;9.466;2022-08-30T02:39:19;12.02;;;8.82;;
18973;SDS011;9621;48.690;9.466;2022-08-30T02:41:46;11.93;;;9.10;;
18973;SDS011;9621;48.690;9.466;2022-08-30T02:44:13;12.05;;;8.95;;
18973;SDS011;9621;48.690;9.466;2022-08-30T02:46:41;14.98;;;8.93;;
18973;SDS011;9621;48.690;9.466;2022-08-30T02:49:09;12.80;;;8.93;;
18973;SDS011;9621;48.690;9.466;2022-08-30T02:51:38;14.13;;;10.07;;
18973;SDS011;9621;48.690;9.466;2022-08-30T02:54:05;15.18;;;9.77;;
18973;SDS011;9621;48.690;9.466;2022-08-30T02:56:32;11.10;;;9.02;;
18973;SDS011;9621;48.690;9.466;2022-08-30T02:58:59;12.23;;;9.30;;
18973;SDS011;9621;48.690;9.466;2022-08-30T03:01:26;11.77;;;9.30;;
18973;SDS011;9621;48.690;9.466;2022-08-30T03:03:53;11.40;;;8.70;;
18973;SDS011;9621;48.690;9.466;2022-08-30T03:06:19;12.13;;;9.05;;
18973;SDS011;9621;48.690;9.466;2022-08-30T03:08:48;12.55;;;9.05;;
18973;SDS011;9621;48.690;9.466;2022-08-30T03:11:15;14.10;;;9.60;;
18973;SDS011;9621;48.690;9.466;2022-08-30T03:13:42;12.75;;;9.55;;
18973;SDS011;9621;48.690;9.466;2022-08-30T03:16:09;14.30;;;9.38;;
18973;SDS011;9621;48.690;9.466;2022-08-30T03:18:36;19.33;;;10.10;;
18973;SDS011;9621;48.690;9.466;2022-08-30T03:21:07;12.52;;;9.93;;
18973;SDS011;9621;48.690;9.466;2022-08-30T03:23:35;14.35;;;10.70;;
18973;SDS011;9621;48.690;9.466;2022-08-30T03:26:04;13.05;;;10.20;;
18973;SDS011;9621;48.690;9.466;2022-08-30T03:28:31;14.27;;;9.55;;
18973;SDS011;9621;48.690;9.466;2022-08-30T03:30:58;13.35;;;10.20;;
18973;SDS011;9621;48.690;9.466;2022-08-30T03:33:25;17.33;;;10.60;;
18973;SDS011;9621;48.690;9.466;2022-08-30T03:35:52;14.70;;;10.40;;
18973;SDS011;9621;48.690;9.466;2022-08-30T03:38:19;13.68;;;10.50;;
18973;SDS011;9621;48.690;9.466;2022-08-30T03:40:46;13.13;;;9.35;;
18973;SDS011;9621;48.690;9.466;2022-08-30T03:43:15;13.23;;;9.57;;
18973;SDS011;9621;48.690;9.466;2022-08-30T03:45:42;11.38;;;8.43;;
18973;SDS011;9621;48.690;9.466;2022-08-30T03:48:09;10.82;;;9.20;;
18973;SDS011;9621;48.690;9.466;2022-08-30T03:50:36;13.23;;;8.90;;
18973;SDS011;9621;48.690;9.466;2022-08-30T03:53:04;12.82;;;8.90;;
18973;SDS011;9621;48.690;9.466;2022-08-30T03:55:31;12.73;;;8.65;;
18973;SDS011;9621;48.690;9.466;2022-08-30T03:57:59;11.40;;;8.57;;
18973;SDS011;9621;48.690;9.466;2022-08-30T04:00:28;12.00;;;8.65;;
18973;SDS011;9621;48.690;9.466;2022-08-30T04:02:55;13.10;;;9.60;;
18973;SDS011;9621;48.690;9.466;2022-08-30T04:05:22;11.63;;;8.80;;
18973;SDS011;9621;48.690;9.466;2022-08-30T04:07:49;10.38;;;8.82;;
18973;SDS011;9621;48.690;9.466;2022-08-30T04:10:16;13.20;;;9.57;;
18973;SDS011;9621;48.690;9.466;2022-08-30T04:12:45;12.27;;;9.10;;
18973;SDS011;9621;48.690;9.466;2022-08-30T04:15:12;13.85;;;9.65;;
18973;SDS011;9621;48.690;9.466;2022-08-30T04:17:41;14.10;;;8.70;;
18973;SDS011;9621;48.690;9.466;2022-08-30T04:20:08;11.48;;;9.10;;
18973;SDS011;9621;48.690;9.466;2022-08-30T04:22:36;12.60;;;9.40;;
18973;SDS011;9621;48.690;9.466;2022-08-30T04:25:03;13.45;;;9.48;;
18973;SDS011;9621;48.690;9.466;2022-08-30T04:27:31;14.10;;;10.10;;
18973;SDS011;9621;48.690;9.466;2022-08-30T04:29:58;11.25;;;9.45;;
18973;SDS011;9621;48.690;9.466;2022-08-30T04:32:25;14.52;;;9.95;;
18973;SDS011;9621;48.690;9.466;2022-08-30T04:34:55;13.20;;;10.20;;
18973;SDS011;9621;48.690;9.466;2022-08-30T04:37:23;12.40;;;9.60;;
18973;SDS011;9621;48.690;9.466;2022-08-30T04:39:53;11.60;;;9.57;;
18973;SDS011;9621;48.690;9.466;2022-08-30T04:42:21;13.07;;;9.45;;
18973;SDS011;9621;48.690;9.466;2022-08-30T04:44:49;13.35;;;9.85;;
18973;SDS011;9621;48.690;9.466;2022-08-30T04:47:16;15.50;;;9.45;;
18973;SDS011;9621;48.690;9.466;2022-08-30T04:49:43;13.63;;;10.27;;
18973;SDS011;9621;48.690;9.466;2022-08-30T04:52:11;12.73;;;9.63;;
18973;SDS011;9621;48.690;9.466;2022-08-30T04:54:39;13.57;;;9.07;;
18973;SDS011;9621;48.690;9.466;2022-08-30T04:57:06;11.30;;;8.50;;
18973;SDS011;9621;48.690;9.466;2022-08-30T04:59:33;15.32;;;9.80;;
18973;SDS011;9621;48.690;9.466;2022-08-30T05:01:59;11.20;;;9.38;;
18973;SDS011;9621;48.690;9.466;2022-08-30T05:04:27;14.27;;;9.00;;
18973;SDS011;9621;48.690;9.466;2022-08-30T05:06:53;13.85;;;10.30;;
18973;SDS011;9621;48.690;9.466;2022-08-30T05:09:22;11.35;;;8.90;;
18973;SDS011;9621;48.690;9.466;2022-08-30T05:11:49;12.10;;;8.70;;
18973;SDS011;9621;48.690;9.466;2022-08-30T05:14:16;12.38;;;8.70;;
18973;SDS011;9621;48.690;9.466;2022-08-30T05:16:43;14.02;;;8.43;;
18973;SDS011;9621;48.690;9.466;2022-08-30T05:19:10;10.13;;;8.45;;
18973;SDS011;9621;48.690;9.466;2022-08-30T05:21:37;10.30;;;7.75;;
18973;SDS011;9621;48.690;9.466;2022-08-30T05:24:05;17.35;;;8.73;;
18973;SDS011;9621;48.690;9.466;2022-08-30T05:26:36;12.65;;;8.18;;
18973;SDS011;9621;48.690;9.466;2022-08-30T05:29:03;11.63;;;7.38;;
18973;SDS011;9621;48.690;9.466;2022-08-30T05:31:32;13.23;;;8.30;;
18973;SDS011;9621;48.690;9.466;2022-08-30T05:34:00;10.35;;;8.30;;
18973;SDS011;9621;48.690;9.466;2022-08-30T05:36:28;10.63;;;7.43;;
18973;SDS011;9621;48.690;9.466;2022-08-30T05:38:56;9.57;;;7.63;;
18973;SDS011;9621;48.690;9.466;2022-08-30T05:41:24;8.75;;;6.72;;
18973;SDS011;9621;48.690;9.466;2022-08-30T05:43:54;7.75;;;6.13;;
18973;SDS011;9621;48.690;9.466;2022-08-30T05:46:22;13.32;;;6.47;;
18973;SDS011;9621;48.690;9.466;2022-08-30T05:48:49;7.85;;;6.28;;
18973;SDS011;9621;48.690;9.466;2022-08-30T05:51:18;9.32;;;6.93;;
18973;SDS011;9621;48.690;9.466;2022-08-30T05:53:46;10.32;;;6.85;;
18973;SDS011;9621;48.690;9.466;2022-08-30T05:56:16;10.73;;;7.20;;
18973;SDS011;9621;48.690;9.466;2022-08-30T05:58:44;8.30;;;6.43;;
18973;SDS011;9621;48.690;9.466;2022-08-30T06:01:20;11.25;;;7.30;;
18973;SDS011;9621;48.690;9.466;2022-08-30T06:03:49;7.90;;;6.80;;
18973;SDS011;9621;48.690;9.466;2022-08-30T06:06:16;9.45;;;7.38;;
18973;SDS011;9621;48.690;9.466;2022-08-30T06:08:43;10.18;;;7.88;;
18973;SDS011;9621;48.690;9.466;2022-08-30T06:11:11;10.10;;;8.43;;
18973;SDS011;9621;48.690;9.466;2022-08-30T06:13:39;13.85;;;7.88;;
18973;SDS011;9621;48.690;9.466;2022-08-30T06:16:06;13.32;;;8.25;;
18973;SDS011;9621;48.690;9.466;2022-08-30T06:18:35;11.57;;;7.05;;
18973;SDS011;9621;48.690;9.466;2022-08-30T06:21:02;13.98;;;7.22;;
18973;SDS011;9621;48.690;9.466;2022-08-30T06:23:29;9.75;;;7.00;;
18973;SDS011;9621;48.690;9.466;2022-08-30T06:25:56;14.77;;;6.80;;
18973;SDS011;9621;48.690;9.466;2022-08-30T06:28:28;10.32;;;6.75;;
18973;SDS011;9621;48.690;9.466;2022-08-30T06:30:56;9.10;;;6.50;;
18973;SDS011;9621;48.690;9.466;2022-08-30T06:33:23;11.07;;;6.82;;
18973;SDS011;9621;48.690;9.466;2022-08-30T06:35:52;9.18;;;6.55;;
18973;SDS011;9621;48.690;9.466;2022-08-30T06:38:19;10.38;;;6.30;;
18973;SDS011;9621;48.690;9.466;2022-08-30T06:40:46;9.13;;;6.25;;
18973;SDS011;9621;48.690;9.466;2022-08-30T06:43:15;14.05;;;6.68;;
18973;SDS011;9621;48.690;9.466;2022-08-30T06:45:42;14.43;;;5.75;;
18973;SDS011;9621;48.690;9.466;2022-08-30T06:48:09;9.70;;;6.40;;
18973;SDS011;9621;48.690;9.466;2022-08-30T06:50:36;13.32;;;5.78;;
18973;SDS011;9621;48.690;9.466;2022-08-30T06:53:07;10.88;;;5.95;;
18973;SDS011;9621;48.690;9.466;2022-08-30T06:55:34;7.43;;;5.65;;
18973;SDS011;9621;48.690;9.466;2022-08-30T06:58:01;6.68;;;5.60;;
18973;SDS011;9621;48.690;9.466;2022-08-30T07:00:29;8.02;;;5.40;;
18973;SDS011;9621;48.690;9.466;2022-08-30T07:02:56;10.57;;;5.03;;
18973;SDS011;9621;48.690;9.466;2022-08-30T07:05:24;7.57;;;5.80;;
18973;SDS011;9621;48.690;9.466;2022-08-30T07:07:51;10.10;;;5.68;;
18973;SDS011;9621;48.690;9.466;2022-08-30T07:10:19;10.90;;;5.50;;
18973;SDS011;9621;48.690;9.466;2022-08-30T07:12:46;7.10;;;5.00;;
18973;SDS011;9621;48.690;9.466;2022-08-30T07:15:14;8.77;;;5.22;;
18973;SDS011;9621;48.690;9.466;2022-08-30T07:17:44;8.88;;;5.70;;
18973;SDS011;9621;48.690;9.466;2022-08-30T07:20:29;10.55;;;5.25;;
18973;SDS011;9621;48.690;9.466;2022-08-30T07:22:56;6.45;;;5.00;;
18973;SDS011;9621;48.690;9.466;2022-08-30T07:25:24;7.63;;;5.15;;
18973;SDS011;9621;48.690;9.466;2022-08-30T07:27:51;7.97;;;4.97;;
18973;SDS011;9621;48.690;9.466;2022-08-30T07:30:18;8.05;;;5.10;;
18973;SDS011;9621;48.690;9.466;2022-08-30T07:32:45;7.40;;;4.85;;
18973;SDS011;9621;48.690;9.466;2022-08-30T07:35:12;6.47;;;5.00;;
18973;SDS011;9621;48.690;9.466;2022-08-30T07:37:40;7.43;;;4.80;;
18973;SDS011;9621;48.690;9.466;2022-08-30T07:40:07;10.48;;;5.05;;
18973;SDS011;9621;48.690;9.466;2022-08-30T07:42:36;7.20;;;5.00;;
18973;SDS011;9621;48.690;9.466;2022-08-30T07:45:05;9.38;;;4.43;;
18973;SDS011;9621;48.690;9.466;2022-08-30T07:47:33;6.15;;;4.20;;
18973;SDS011;9621;48.690;9.466;2022-08-30T07:50:00;8.35;;;4.85;;
18973;SDS011;9621;48.690;9.466;2022-08-30T07:52:27;6.07;;;4.30;;
18973;SDS011;9621;48.690;9.466;2022-08-30T07:54:55;8.13;;;4.00;;
18973;SDS011;9621;48.690;9.466;2022-08-30T07:57:22;5.93;;;4.30;;
18973;SDS011;9621;48.690;9.466;2022-08-30T07:59:51;8.27;;;4.75;;
18973;SDS011;9621;48.690;9.466;2022-08-30T08:02:18;6.03;;;4.63;;
18973;SDS011;9621;48.690;9.466;2022-08-30T08:04:45;10.30;;;4.63;;
18973;SDS011;9621;48.690;9.466;2022-08-30T08:07:12;8.43;;;4.55;;
18973;SDS011;9621;48.690;9.466;2022-08-30T08:09:39;8.10;;;4.55;;
18973;SDS011;9621;48.690;9.466;2022-08-30T08:12:07;8.30;;;4.55;;
18973;SDS011;9621;48.690;9.466;2022-08-30T08:14:34;7.50;;;4.50;;
18973;SDS011;9621;48.690;9.466;2022-08-30T08:17:03;6.47;;;4.50;;
18973;SDS011;9621;48.690;9.466;2022-08-30T08:19:30;4.88;;;4.20;;
18973;SDS011;9621;48.690;9.466;2022-08-30T08:21:57;5.95;;;4.32;;
18973;SDS011;9621;48.690;9.466;2022-08-30T08:24:24;8.38;;;4.30;;
18973;SDS011;9621;48.690;9.466;2022-08-30T08:26:52;5.72;;;4.38;;
18973;SDS011;9621;48.690;9.466;2022-08-30T08:29:19;7.55;;;4.35;;
18973;SDS011;9621;48.690;9.466;2022-08-30T08:31:47;4.85;;;3.92;;
18973;SDS011;9621;48.690;9.466;2022-08-30T08:34:15;5.03;;;4.53;;
18973;SDS011;9621;48.690;9.466;2022-08-30T08:36:47;4.75;;;3.90;;
18973;SDS011;9621;48.690;9.466;2022-08-30T08:39:14;5.20;;;4.40;;
18973;SDS011;9621;48.690;9.466;2022-08-30T08:41:45;5.43;;;3.97;;
18973;SDS011;9621;48.690;9.466;2022-08-30T08:44:21;5.10;;;4.28;;
18973;SDS011;9621;48.690;9.466;2022-08-30T08:46:58;7.88;;;4.45;;
18973;SDS011;9621;48.690;9.466;2022-08-30T08:49:37;5.03;;;4.28;;
18973;SDS011;9621;48.690;9.466;2022-08-30T08:52:06;7.57;;;4.68;;
18973;SDS011;9621;48.690;9.466;2022-08-30T08:54:55;5.53;;;4.40;;
18973;SDS011;9621;48.690;9.466;2022-08-30T08:57:25;6.13;;;4.10;;
18973;SDS011;9621;48.690;9.466;2022-08-30T08:59:58;5.32;;;3.70;;
18973;SDS011;9621;48.690;9.466;2022-08-30T09:02:26;5.18;;;4.60;;
18973;SDS011;9621;48.690;9.466;2022-08-30T09:04:56;5.60;;;4.22;;
18973;SDS011;9621;48.690;9.466;2022-08-30T09:07:28;4.85;;;4.35;;
18973;SDS011;9621;48.690;9.466;2022-08-30T09:09:57;4.75;;;4.20;;
18973;SDS011;9621;48.690;9.466;2022-08-30T09:12:25;8.25;;;4.63;;
18973;SDS011;9621;48.690;9.466;2022-08-30T09:14:54;6.30;;;4.47;;
18973;SDS011;9621;48.690;9.466;2022-08-30T09:17:26;5.80;;;4.20;;
18973;SDS011;9621;48.690;9.466;2022-08-30T09:19:58;6.13;;;4.90;;
18973;SDS011;9621;48.690;9.466;2022-08-30T09:22:30;7.05;;;5.00;;
18973;SDS011;9621;48.690;9.466;2022-08-30T09:24:59;7.03;;;4.22;;
18973;SDS011;9621;48.690;9.466;2022-08-30T09:27:30;8.10;;;4.78;;
18973;SDS011;9621;48.690;9.466;2022-08-30T09:30:00;4.80;;;4.30;;
18973;SDS011;9621;48.690;9.466;2022-08-30T09:32:32;4.75;;;4.13;;
18973;SDS011;9621;48.690;9.466;2022-08-30T09:35:07;5.85;;;4.55;;
18973;SDS011;9621;48.690;9.466;2022-08-30T09:37:38;5.13;;;4.20;;
18973;SDS011;9621;48.690;9.466;2022-08-30T09:40:12;8.77;;;4.47;;
18973;SDS011;9621;48.690;9.466;2022-08-30T09:42:56;7.88;;;4.75;;
18973;SDS011;9621;48.690;9.466;2022-08-30T09:45:30;4.93;;;4.40;;
18973;SDS011;9621;48.690;9.466;2022-08-30T09:48:00;6.57;;;4.00;;
18973;SDS011;9621;48.690;9.466;2022-08-30T09:50:46;6.78;;;4.55;;
18973;SDS011;9621;48.690;9.466;2022-08-30T09:53:19;6.38;;;4.28;;
18973;SDS011;9621;48.690;9.466;2022-08-30T09:55:54;4.30;;;3.90;;
18973;SDS011;9621;48.690;9.466;2022-08-30T09:58:31;5.70;;;3.75;;
18973;SDS011;9621;48.690;9.466;2022-08-30T10:01:08;5.78;;;3.95;;
18973;SDS011;9621;48.690;9.466;2022-08-30T10:03:40;6.43;;;4.05;;
18973;SDS011;9621;48.690;9.466;2022-08-30T10:06:17;4.20;;;3.72;;
18973;SDS011;9621;48.690;9.466;2022-08-30T10:08:56;5.70;;;3.72;;
18973;SDS011;9621;48.690;9.466;2022-08-30T10:11:34;5.10;;;3.90;;
18973;SDS011;9621;48.690;9.466;2022-08-30T10:14:22;7.13;;;3.88;;
18973;SDS011;9621;48.690;9.466;2022-08-30T10:17:02;4.35;;;3.67;;
18973;SDS011;9621;48.690;9.466;2022-08-30T10:19:40;6.18;;;4.20;;
18973;SDS011;9621;48.690;9.466;2022-08-30T10:22:25;7.20;;;3.80;;
18973;SDS011;9621;48.690;9.466;2022-08-30T10:25:00;4.30;;;3.90;;
18973;SDS011;9621;48.690;9.466;2022-08-30T10:27:33;7.03;;;4.25;;
18973;SDS011;9621;48.690;9.466;2022-08-30T10:30:06;4.90;;;3.90;;
18973;SDS011;9621;48.690;9.466;2022-08-30T10:32:37;4.13;;;3.75;;
18973;SDS011;9621;48.690;9.466;2022-08-30T10:35:10;4.03;;;3.63;;
18973;SDS011;9621;48.690;9.466;2022-08-30T10:37:42;6.53;;;3.55;;
18973;SDS011;9621;48.690;9.466;2022-08-30T10:40:15;4.75;;;3.65;;
18973;SDS011;9621;48.690;9.466;2022-08-30T10:43:05;4.22;;;3.78;;
18973;SDS011;9621;48.690;9.466;2022-08-30T10:45:39;4.40;;;3.55;;
18973;SDS011;9621;48.690;9.466;2022-08-30T10:48:10;3.80;;;3.20;;
18973;SDS011;9621;48.690;9.466;2022-08-30T10:50:44;4.68;;;3.35;;
18973;SDS011;9621;48.690;9.466;2022-08-30T10:53:17;4.88;;;3.20;;
18973;SDS011;9621;48.690;9.466;2022-08-30T10:55:47;4.05;;;3.60;;
18973;SDS011;9621;48.690;9.466;2022-08-30T10:58:17;3.78;;;3.35;;
18973;SDS011;9621;48.690;9.466;2022-08-30T11:00:49;4.03;;;3.42;;
18973;SDS011;9621;48.690;9.466;2022-08-30T11:06:42;4.53;;;3.63;;
18973;SDS011;9621;48.690;9.466;2022-08-30T11:12:21;3.97;;;3.47;;
18973;SDS011;9621;48.690;9.466;2022-08-30T11:14:56;7.10;;;3.20;;
18973;SDS011;9621;48.690;9.466;2022-08-30T11:17:25;5.35;;;3.45;;
18973;SDS011;9621;48.690;9.466;2022-08-30T11:19:55;3.05;;;2.58;;
18973;SDS011;9621;48.690;9.466;2022-08-30T11:22:26;3.25;;;2.83;;
18973;SDS011;9621;48.690;9.466;2022-08-30T11:25:12;3.60;;;3.15;;
18973;SDS011;9621;48.690;9.466;2022-08-30T11:27:42;4.95;;;3.15;;
18973;SDS011;9621;48.690;9.466;2022-08-30T11:36:09;4.13;;;3.40;;
18973;SDS011;9621;48.690;9.466;2022-08-30T11:38:58;4.72;;;3.53;;
18973;SDS011;9621;48.690;9.466;2022-08-30T11:41:30;5.40;;;3.20;;
18973;SDS011;9621;48.690;9.466;2022-08-30T11:46:56;6.68;;;3.33;;
18973;SDS011;9621;48.690;9.466;2022-08-30T11:58:12;4.75;;;3.58;;
18973;SDS011;9621;48.690;9.466;2022-08-30T12:00:47;4.10;;;3.50;;
18973;SDS011;9621;48.690;9.466;2022-08-30T12:03:33;3.63;;;3.33;;
18973;SDS011;9621;48.690;9.466;2022-08-30T12:06:01;4.70;;;3.60;;
18973;SDS011;9621;48.690;9.466;2022-08-30T12:08:47;4.47;;;3.65;;
18973;SDS011;9621;48.690;9.466;2022-08-30T12:17:23;3.63;;;3.25;;
18973;SDS011;9621;48.690;9.466;2022-08-30T12:20:25;3.60;;;3.30;;
18973;SDS011;9621;48.690;9.466;2022-08-30T12:22:53;5.25;;;3.45;;
18973;SDS011;9621;48.690;9.466;2022-08-30T12:25:26;4.45;;;3.25;;
18973;SDS011;9621;48.690;9.466;2022-08-30T12:28:13;5.72;;;3.90;;
18973;SDS011;9621;48.690;9.466;2022-08-30T12:30:43;3.88;;;3.17;;
18973;SDS011;9621;48.690;9.466;2022-08-30T12:33:11;3.40;;;3.10;;
18973;SDS011;9621;48.690;9.466;2022-08-30T12:35:47;3.38;;;3.03;;
18973;SDS011;9621;48.690;9.466;2022-08-30T12:38:17;4.30;;;3.20;;
18973;SDS011;9621;48.690;9.466;2022-08-30T12:40:47;5.00;;;3.45;;
18973;SDS011;9621;48.690;9.466;2022-08-30T12:43:20;7.88;;;3.78;;
18973;SDS011;9621;48.690;9.466;2022-08-30T12:45:51;5.22;;;3.28;;
18973;SDS011;9621;48.690;9.466;2022-08-30T12:48:21;3.75;;;3.13;;
18973;SDS011;9621;48.690;9.466;2022-08-30T12:50:49;4.35;;;3.47;;
18973;SDS011;9621;48.690;9.466;2022-08-30T12:53:22;4.32;;;3.40;;
18973;SDS011;9621;48.690;9.466;2022-08-30T12:55:53;5.30;;;3.10;;
18973;SDS011;9621;48.690;9.466;2022-08-30T12:58:36;4.07;;;3.60;;
18973;SDS011;9621;48.690;9.466;2022-08-30T13:04:01;4.65;;;3.58;;
18973;SDS011;9621;48.690;9.466;2022-08-30T13:06:42;3.97;;;3.47;;
18973;SDS011;9621;48.690;9.466;2022-08-30T13:09:21;3.85;;;3.33;;
18973;SDS011;9621;48.690;9.466;2022-08-30T13:11:53;4.25;;;3.38;;
18973;SDS011;9621;48.690;9.466;2022-08-30T13:14:29;4.68;;;3.78;;
18973;SDS011;9621;48.690;9.466;2022-08-30T13:17:10;4.93;;;3.40;;
18973;SDS011;9621;48.690;9.466;2022-08-30T13:19:54;4.30;;;3.50;;
18973;SDS011;9621;48.690;9.466;2022-08-30T13:22:27;4.85;;;3.17;;
18973;SDS011;9621;48.690;9.466;2022-08-30T13:24:56;4.70;;;3.53;;
18973;SDS011;9621;48.690;9.466;2022-08-30T13:27:24;4.55;;;3.67;;
18973;SDS011;9621;48.690;9.466;2022-08-30T13:29:52;4.00;;;3.38;;
18973;SDS011;9621;48.690;9.466;2022-08-30T13:32:20;8.07;;;3.85;;
18973;SDS011;9621;48.690;9.466;2022-08-30T13:34:48;3.45;;;3.10;;
18973;SDS011;9621;48.690;9.466;2022-08-30T13:37:17;5.78;;;3.70;;
18973;SDS011;9621;48.690;9.466;2022-08-30T13:39:45;4.10;;;3.60;;
18973;SDS011;9621;48.690;9.466;2022-08-30T13:42:13;4.93;;;3.28;;
18973;SDS011;9621;48.690;9.466;2022-08-30T13:44:40;5.03;;;2.95;;
18973;SDS011;9621;48.690;9.466;2022-08-30T13:47:07;4.20;;;3.38;;
18973;SDS011;9621;48.690;9.466;2022-08-30T13:49:36;4.90;;;3.33;;
18973;SDS011;9621;48.690;9.466;2022-08-30T13:52:06;3.78;;;3.38;;
18973;SDS011;9621;48.690;9.466;2022-08-30T13:54:33;7.18;;;3.78;;
18973;SDS011;9621;48.690;9.466;2022-08-30T13:57:00;4.40;;;3.33;;
18973;SDS011;9621;48.690;9.466;2022-08-30T13:59:27;3.72;;;3.00;;
18973;SDS011;9621;48.690;9.466;2022-08-30T14:01:57;3.78;;;3.10;;
18973;SDS011;9621;48.690;9.466;2022-08-30T14:04:24;6.07;;;3.47;;
18973;SDS011;9621;48.690;9.466;2022-08-30T14:06:53;4.53;;;3.50;;
18973;SDS011;9621;48.690;9.466;2022-08-30T14:09:20;3.22;;;2.92;;
18973;SDS011;9621;48.690;9.466;2022-08-30T14:11:46;5.72;;;3.25;;
18973;SDS011;9621;48.690;9.466;2022-08-30T14:14:14;3.40;;;3.10;;
18973;SDS011;9621;48.690;9.466;2022-08-30T14:16:42;4.22;;;3.17;;
18973;SDS011;9621;48.690;9.466;2022-08-30T14:19:10;5.22;;;3.67;;
18973;SDS011;9621;48.690;9.466;2022-08-30T14:21:38;4.20;;;3.80;;
18973;SDS011;9621;48.690;9.466;2022-08-30T14:24:07;3.83;;;3.22;;
18973;SDS011;9621;48.690;9.466;2022-08-30T14:26:35;4.03;;;3.17;;
18973;SDS011;9621;48.690;9.466;2022-08-30T14:29:05;3.47;;;3.08;;
18973;SDS011;9621;48.690;9.466;2022-08-30T14:31:33;3.63;;;3.28;;
18973;SDS011;9621;48.690;9.466;2022-08-30T14:34:01;3.47;;;3.10;;
18973;SDS011;9621;48.690;9.466;2022-08-30T14:36:28;3.50;;;3.10;;
18973;SDS011;9621;48.690;9.466;2022-08-30T14:38:55;6.03;;;3.72;;
18973;SDS011;9621;48.690;9.466;2022-08-30T14:41:24;3.85;;;3.28;;
18973;SDS011;9621;48.690;9.466;2022-08-30T14:43:51;4.65;;;3.58;;
18973;SDS011;9621;48.690;9.466;2022-08-30T14:46:19;3.92;;;3.53;;
18973;SDS011;9621;48.690;9.466;2022-08-30T14:48:49;6.78;;;3.20;;
18973;SDS011;9621;48.690;9.466;2022-08-30T14:51:17;4.22;;;3.08;;
18973;SDS011;9621;48.690;9.466;2022-08-30T14:53:45;3.80;;;3.40;;
18973;SDS011;9621;48.690;9.466;2022-08-30T14:56:13;4.97;;;3.53;;
18973;SDS011;9621;48.690;9.466;2022-08-30T14:58:43;4.18;;;3.42;;
18973;SDS011;9621;48.690;9.466;2022-08-30T15:01:10;3.75;;;3.20;;
18973;SDS011;9621;48.690;9.466;2022-08-30T15:03:38;5.03;;;3.97;;
18973;SDS011;9621;48.690;9.466;2022-08-30T15:06:06;6.75;;;3.70;;
18973;SDS011;9621;48.690;9.466;2022-08-30T15:08:34;5.47;;;3.60;;
18973;SDS011;9621;48.690;9.466;2022-08-30T15:11:05;5.13;;;4.18;;
18973;SDS011;9621;48.690;9.466;2022-08-30T15:13:33;4.15;;;3.75;;
18973;SDS011;9621;48.690;9.466;2022-08-30T15:16:02;6.10;;;3.72;;
18973;SDS011;9621;48.690;9.466;2022-08-30T15:18:35;7.20;;;4.00;;
18973;SDS011;9621;48.690;9.466;2022-08-30T15:21:02;3.40;;;3.10;;
18973;SDS011;9621;48.690;9.466;2022-08-30T15:23:29;6.93;;;3.70;;
18973;SDS011;9621;48.690;9.466;2022-08-30T15:25:56;4.22;;;3.60;;
18973;SDS011;9621;48.690;9.466;2022-08-30T15:28:23;5.13;;;3.75;;
18973;SDS011;9621;48.690;9.466;2022-08-30T15:30:50;6.38;;;3.95;;
18973;SDS011;9621;48.690;9.466;2022-08-30T15:33:20;4.15;;;3.75;;
18973;SDS011;9621;48.690;9.466;2022-08-30T15:35:48;6.90;;;4.68;;
18973;SDS011;9621;48.690;9.466;2022-08-30T15:38:16;5.80;;;3.85;;
18973;SDS011;9621;48.690;9.466;2022-08-30T15:40:43;4.63;;;3.67;;
18973;SDS011;9621;48.690;9.466;2022-08-30T15:43:11;4.55;;;4.00;;